aviador You're here:

LFRM Decoded Metar

LE MANS in FRANCE
Report Time2018-02-20 03:00:00
UTC Time2018-02-20 03:24:17
Flight Rules mvfr MVFR
Wind310° at 05 kt
W.Decomp.*RWY 02: 1.8 kt HW 4.7 kt LCW
W.Rank310° ranks 29
Current wind is below 310° avg. (5.6)
Visibility9999 m
Phenomena:N/A
Clouds:Overcast 022 Hf
Expected CloudBase > 400 ft AGL from Temp-Dew spread
Ceiling2,200 ft
Temp10°C (ISA -5)
Dew Point09°C (94% RH)
AAT8.0°C
QNH1016 hPa
Density Alt-331 ft
Elevation171 ft
Report Wrong Elevation
Raw Report
METAR LFRM 200300Z AUTO 31005KT 270V340 9999 OVC022 10/09 Q1016=

Extra information for LFRM:More info

Metar Taf Metar & Taf Last 4 Metars F.Rules Stats Wind Profile Meteogram Temp Stats Airport Information Weather charts Add Link Nearby VenuesMetar ALERT Operation Metar Decoded Social comments